createdAt,value
2023-04-02T00:00:19.125Z,0.70
2023-04-02T00:03:44.624Z,0.57
2023-04-02T00:07:33.772Z,0.65
2023-04-02T00:10:59.283Z,0.68
2023-04-02T00:14:26.424Z,0.63
2023-04-02T00:17:48.708Z,0.70
2023-04-02T00:21:18.577Z,0.90
2023-04-02T00:24:40.991Z,0.50
2023-04-02T00:28:04.249Z,0.63
2023-04-02T00:31:27.218Z,0.70
2023-04-02T00:34:50.433Z,0.60
2023-04-02T00:38:33.095Z,0.70
2023-04-02T00:42:06.631Z,0.70
2023-04-02T00:45:37.344Z,0.63
2023-04-02T00:49:21.798Z,0.70
2023-04-02T00:52:46.625Z,0.63
2023-04-02T00:56:37.755Z,0.70
2023-04-02T01:00:08.021Z,0.50
2023-04-02T01:03:38.089Z,0.65
2023-04-02T01:07:06.390Z,0.50
2023-04-02T01:10:59.232Z,0.77
2023-04-02T01:14:40.915Z,0.52
2023-04-02T01:18:21.873Z,0.75
2023-04-02T01:21:55.886Z,0.60
2023-04-02T01:25:26.080Z,0.65
2023-04-02T01:29:02.493Z,0.43
2023-04-02T01:32:28.119Z,0.63
2023-04-02T01:35:59.817Z,0.52
2023-04-02T01:40:10.801Z,0.60
2023-04-02T01:43:53.726Z,0.40
2023-04-02T01:47:19.475Z,0.70
2023-04-02T01:50:45.372Z,0.50
2023-04-02T01:54:08.545Z,0.47
2023-04-02T01:57:31.596Z,0.50
2023-04-02T02:01:02.308Z,0.70
2023-04-02T02:04:26.069Z,0.70
2023-04-02T02:07:49.300Z,0.63
2023-04-02T02:11:21.631Z,0.70
2023-04-02T02:14:49.984Z,0.52
2023-04-02T02:18:13.629Z,0.70
2023-04-02T02:21:41.825Z,0.60
2023-04-02T02:25:11.153Z,0.60
2023-04-02T02:28:40.232Z,0.80
2023-04-02T02:32:03.843Z,0.40
2023-04-02T02:35:33.271Z,0.57
2023-04-02T02:39:17.744Z,0.60
2023-04-02T02:43:07.987Z,0.80
2023-04-02T02:46:32.578Z,0.82
2023-04-02T02:50:01.564Z,0.57
2023-04-02T02:53:25.436Z,0.60
2023-04-02T02:56:57.530Z,0.55
2023-04-02T03:00:21.174Z,0.82
2023-04-02T03:03:45.574Z,0.50
2023-04-02T03:07:09.336Z,0.70
2023-04-02T03:10:54.221Z,0.50
2023-04-02T03:14:48.460Z,0.77
2023-04-02T03:18:32.772Z,0.80
2023-04-02T03:22:03.465Z,0.57
2023-04-02T03:25:44.618Z,0.70
2023-04-02T03:29:16.423Z,0.63
2023-04-02T03:32:42.602Z,0.85
2023-04-02T03:36:19.896Z,0.50
2023-04-02T03:40:08.872Z,0.75
2023-04-02T03:43:44.435Z,0.47
2023-04-02T03:51:27.652Z,0.60
2023-04-02T03:54:54.233Z,0.70
2023-04-02T03:59:03.122Z,0.70
2023-04-02T04:02:57.502Z,0.70
2023-04-02T04:06:41.530Z,0.50
2023-04-02T04:10:07.282Z,0.75
2023-04-02T04:17:15.657Z,0.60
2023-04-02T04:20:57.055Z,0.50
2023-04-02T04:28:24.114Z,0.70
2023-04-02T04:31:50.730Z,0.80
2023-04-02T04:35:43.654Z,0.50
2023-04-02T04:39:16.781Z,0.50
2023-04-02T04:42:44.395Z,0.50
2023-04-02T04:46:14.922Z,0.67
2023-04-02T04:49:44.837Z,0.60
2023-04-02T04:53:16.628Z,0.60
2023-04-02T04:56:40.483Z,0.80
2023-04-02T05:00:30.736Z,0.70
2023-04-02T05:04:11.273Z,0.50
2023-04-02T05:07:45.561Z,0.57
2023-04-02T05:11:15.982Z,0.50
2023-04-02T05:14:56.153Z,0.50
2023-04-02T05:18:33.466Z,0.38
2023-04-02T05:22:42.244Z,0.60
2023-04-02T05:26:53.696Z,0.38
2023-04-02T05:30:25.219Z,0.40
2023-04-02T05:33:50.681Z,0.50
2023-04-02T05:37:25.820Z,1.05
2023-04-02T05:40:58.605Z,0.55
2023-04-02T05:44:24.487Z,0.50
2023-04-02T05:47:51.902Z,0.60
2023-04-02T05:51:31.125Z,0.50
2023-04-02T05:55:12.852Z,0.70
2023-04-02T05:58:46.274Z,0.60
2023-04-02T06:02:45.176Z,0.40
2023-04-02T06:09:54.378Z,0.40
2023-04-02T06:13:19.418Z,0.65
2023-04-02T06:16:43.549Z,0.22
2023-04-02T06:20:06.796Z,0.50
2023-04-02T06:23:33.146Z,0.43
2023-04-02T06:27:03.081Z,0.70
2023-04-02T06:30:31.982Z,0.50
2023-04-02T06:33:56.458Z,0.55
2023-04-02T06:37:34.742Z,0.50
2023-04-02T06:41:22.024Z,0.60
2023-04-02T06:45:03.702Z,0.50
2023-04-02T06:48:43.767Z,0.43
2023-04-02T06:52:19.298Z,0.57
2023-04-02T06:55:47.718Z,0.50
2023-04-02T06:59:15.672Z,0.45
2023-04-02T07:02:39.816Z,0.50
2023-04-02T07:06:04.496Z,0.40
2023-04-02T07:09:28.697Z,0.43
2023-04-02T07:12:54.817Z,0.30
2023-04-02T07:16:21.817Z,0.70
2023-04-02T07:19:49.162Z,0.60
2023-04-02T07:23:16.455Z,0.30
2023-04-02T07:26:39.386Z,0.50
2023-04-02T07:30:01.634Z,0.63
2023-04-02T07:33:29.802Z,0.40
2023-04-02T07:36:52.581Z,0.68
2023-04-02T07:40:21.922Z,0.40
2023-04-02T07:43:44.478Z,0.43
2023-04-02T07:47:08.502Z,0.47
2023-04-02T07:50:30.763Z,0.40
2023-04-02T07:53:55.948Z,0.70
2023-04-02T07:57:18.574Z,0.60
2023-04-02T08:00:40.858Z,0.40
2023-04-02T08:04:05.320Z,0.60
2023-04-02T08:07:28.671Z,0.50
2023-04-02T08:10:51.676Z,0.45
2023-04-02T08:14:14.113Z,0.50
2023-04-02T08:17:36.723Z,0.60
2023-04-02T08:20:59.891Z,0.40
2023-04-02T08:24:22.993Z,0.50
2023-04-02T08:27:50.639Z,0.40
2023-04-02T08:31:13.493Z,0.55
2023-04-02T08:34:35.820Z,0.70
2023-04-02T08:37:58.713Z,0.50
2023-04-02T08:41:27.779Z,0.47
2023-04-02T08:45:21.159Z,0.70
2023-04-02T08:48:55.268Z,0.52
2023-04-02T08:52:30.577Z,0.50
2023-04-02T08:56:10.118Z,0.55
2023-04-02T08:59:40.885Z,0.50
2023-04-02T09:03:09.691Z,0.60
2023-04-02T09:06:34.685Z,0.32
2023-04-02T09:09:58.211Z,0.75
2023-04-02T09:13:27.345Z,0.50
2023-04-02T09:17:01.685Z,0.75
2023-04-02T09:20:26.658Z,0.80
2023-04-02T09:23:50.010Z,0.82
2023-04-02T09:27:22.848Z,0.52
2023-04-02T09:30:50.722Z,0.60
2023-04-02T09:34:32.981Z,0.93
2023-04-02T09:38:21.624Z,0.70
2023-04-02T09:41:50.298Z,0.60
2023-04-02T09:45:23.951Z,1.10
2023-04-02T09:49:00.918Z,0.60
2023-04-02T09:52:30.885Z,0.50
2023-04-02T09:56:08.811Z,0.50
2023-04-02T09:59:31.269Z,0.70
2023-04-02T10:03:03.623Z,0.57
2023-04-02T10:06:29.020Z,0.50
2023-04-02T10:09:59.746Z,0.70
2023-04-02T10:13:36.464Z,0.50
2023-04-02T10:17:08.098Z,0.60
2023-04-02T10:20:36.341Z,0.50
2023-04-02T10:24:14.711Z,0.63
2023-04-02T10:27:57.214Z,0.60
2023-04-02T10:31:51.354Z,0.50
2023-04-02T10:35:19.347Z,0.50
2023-04-02T10:38:46.205Z,0.60
2023-04-02T10:42:22.635Z,0.40
2023-04-02T10:46:09.122Z,0.43
2023-04-02T10:49:51.242Z,0.52
2023-04-02T10:53:25.308Z,0.35
2023-04-02T10:56:51.307Z,0.50
2023-04-02T11:00:34.968Z,0.40
2023-04-02T11:04:06.966Z,0.40
2023-04-02T11:07:33.050Z,0.40
2023-04-02T11:11:11.227Z,0.50
2023-04-02T11:14:33.901Z,0.55
2023-04-02T11:17:56.349Z,27.35
2023-04-02T11:21:30.730Z,17.70
2023-04-02T11:24:54.758Z,23.05
2023-04-02T11:28:30.475Z,22.35
2023-04-02T11:32:27.655Z,23.25
2023-04-02T11:35:50.000Z,23.60
2023-04-02T11:39:17.584Z,22.75
2023-04-02T11:42:41.241Z,19.13
2023-04-02T11:46:06.544Z,18.80
2023-04-02T11:53:10.883Z,16.85
2023-04-02T11:56:42.591Z,14.45
2023-04-02T12:00:27.296Z,14.75
2023-04-02T12:03:52.419Z,13.80
2023-04-02T12:07:36.020Z,13.95
2023-04-02T12:11:03.327Z,13.00
2023-04-02T12:14:47.148Z,11.10
2023-04-02T12:18:25.748Z,11.00
2023-04-02T12:21:48.362Z,10.38
2023-04-02T12:25:32.813Z,10.02
2023-04-02T12:28:56.277Z,10.15
2023-04-02T12:32:25.903Z,8.93
2023-04-02T12:35:51.226Z,7.60
2023-04-02T12:39:17.573Z,6.70
2023-04-02T12:42:39.863Z,5.85
2023-04-02T12:46:07.622Z,6.47
2023-04-02T12:49:41.643Z,5.72
2023-04-02T12:53:04.326Z,5.25
2023-04-02T12:56:27.223Z,5.18
2023-04-02T12:59:49.566Z,4.82
2023-04-02T13:03:22.476Z,4.25
2023-04-02T13:06:52.168Z,3.40
2023-04-02T13:10:26.307Z,4.18
2023-04-02T13:13:50.163Z,3.40
2023-04-02T13:17:38.822Z,3.45
2023-04-02T13:21:03.761Z,3.50
2023-04-02T13:24:29.098Z,2.70
2023-04-02T13:27:54.925Z,2.65
2023-04-02T13:31:17.232Z,3.38
2023-04-02T13:34:39.439Z,2.92
2023-04-02T13:38:03.117Z,2.78
2023-04-02T13:41:28.575Z,2.83
2023-04-02T13:44:51.147Z,2.97
2023-04-02T13:48:15.368Z,2.88
2023-04-02T13:51:47.173Z,2.28
2023-04-02T13:55:10.604Z,2.30
2023-04-02T13:58:32.828Z,2.67
2023-04-02T14:02:01.653Z,2.75
2023-04-02T14:05:43.184Z,1.92
2023-04-02T14:09:28.253Z,2.45
2023-04-02T14:13:02.665Z,2.35
2023-04-02T14:16:46.605Z,1.80
2023-04-02T14:20:29.610Z,2.55
2023-04-02T14:23:57.685Z,1.70
2023-04-02T14:27:42.099Z,1.90
2023-04-02T14:31:34.825Z,1.60
2023-04-02T14:35:14.290Z,1.80
2023-04-02T14:38:57.621Z,2.00
2023-04-02T14:42:41.510Z,1.50
2023-04-02T14:46:06.039Z,1.67
2023-04-02T14:49:41.714Z,1.30
2023-04-02T14:53:20.058Z,1.77
2023-04-02T14:56:53.820Z,1.30
2023-04-02T15:00:37.790Z,1.35
2023-04-02T15:04:30.793Z,1.35
2023-04-02T15:08:06.689Z,1.08
2023-04-02T15:11:37.398Z,1.30
2023-04-02T15:15:09.540Z,1.17
2023-04-02T15:18:31.990Z,1.17
2023-04-02T15:21:59.959Z,1.17
2023-04-02T15:25:50.282Z,1.40
2023-04-02T15:29:37.072Z,1.30
2023-04-02T15:33:24.902Z,1.17
2023-04-02T15:37:05.801Z,1.20
2023-04-02T15:40:51.614Z,1.17
2023-04-02T15:48:24.214Z,1.10
2023-04-02T15:52:09.574Z,1.08
2023-04-02T15:55:57.752Z,0.93
2023-04-02T15:59:28.759Z,1.08
2023-04-02T16:02:51.042Z,1.17
2023-04-02T16:06:27.121Z,0.85
2023-04-02T16:10:15.520Z,0.80
2023-04-02T16:13:39.534Z,0.75
2023-04-02T16:17:21.610Z,1.00
2023-04-02T16:20:51.070Z,0.65
2023-04-02T16:24:13.558Z,0.77
2023-04-02T16:27:43.218Z,0.60
2023-04-02T16:31:26.123Z,1.00
2023-04-02T16:35:22.189Z,0.90
2023-04-02T16:39:04.920Z,1.00
2023-04-02T16:42:49.636Z,1.02
2023-04-02T16:46:40.661Z,0.90
2023-04-02T16:50:10.327Z,0.98
2023-04-02T16:54:00.998Z,0.70
2023-04-02T16:57:24.083Z,1.05
2023-04-02T17:00:58.810Z,0.88
2023-04-02T17:04:45.197Z,1.00
2023-04-02T17:08:30.199Z,0.90
2023-04-02T17:11:59.193Z,0.90
2023-04-02T17:15:31.819Z,0.98
2023-04-02T17:18:58.421Z,1.00
2023-04-02T17:22:22.704Z,0.60
2023-04-02T17:25:57.180Z,1.00
2023-04-02T17:29:25.629Z,1.00
2023-04-02T17:32:48.151Z,0.65
2023-04-02T17:36:44.197Z,0.90
2023-04-02T17:40:31.808Z,0.95
2023-04-02T17:44:32.638Z,1.00
2023-04-02T17:48:12.922Z,1.05
2023-04-02T17:51:42.115Z,0.70
2023-04-02T17:55:18.515Z,0.90
2023-04-02T17:59:17.820Z,1.25
2023-04-02T18:02:46.221Z,1.10
2023-04-02T18:06:21.551Z,1.02
2023-04-02T18:10:07.735Z,1.23
2023-04-02T18:13:55.254Z,0.73
2023-04-02T18:17:20.645Z,1.10
2023-04-02T18:20:48.836Z,2.40
2023-04-02T18:24:47.320Z,8.45
2023-04-02T18:28:37.677Z,84.85
2023-04-02T18:32:08.835Z,103.22
2023-04-02T18:35:35.850Z,104.22
2023-04-02T18:39:05.451Z,44.50
2023-04-02T18:42:46.163Z,63.45
2023-04-02T18:46:28.750Z,88.75
2023-04-02T18:50:19.342Z,82.45
2023-04-02T18:53:43.306Z,76.57
2023-04-02T18:57:15.865Z,71.18
2023-04-02T19:00:44.106Z,64.53
2023-04-02T19:04:14.757Z,60.55
2023-04-02T19:07:40.687Z,62.28
2023-04-02T19:11:14.498Z,64.72
2023-04-02T19:14:36.917Z,58.97
2023-04-02T19:18:25.772Z,55.40
2023-04-02T19:22:18.258Z,48.60
2023-04-02T19:26:08.702Z,46.20
2023-04-02T19:29:46.628Z,44.58
2023-04-02T19:33:14.498Z,44.67
2023-04-02T19:36:38.319Z,41.72
2023-04-02T19:40:20.432Z,36.30
2023-04-02T19:43:42.985Z,37.80
2023-04-02T19:47:05.320Z,39.30
2023-04-02T19:50:28.627Z,33.38
2023-04-02T19:53:51.067Z,27.55
2023-04-02T19:57:15.602Z,32.80
2023-04-02T20:00:38.134Z,29.75
2023-04-02T20:04:00.925Z,27.33
2023-04-02T20:07:23.233Z,26.15
2023-04-02T20:10:46.229Z,24.15
2023-04-02T20:14:08.526Z,26.08
2023-04-02T20:17:30.950Z,23.13
2023-04-02T20:20:53.520Z,23.60
2023-04-02T20:24:15.830Z,23.00
2023-04-02T20:27:38.092Z,23.45
2023-04-02T20:31:16.764Z,22.70
2023-04-02T20:34:39.509Z,20.27
2023-04-02T20:38:06.405Z,19.17
2023-04-02T20:41:28.674Z,16.70
2023-04-02T20:44:51.217Z,17.17
2023-04-02T20:48:13.502Z,15.18
2023-04-02T20:51:35.791Z,17.77
2023-04-02T20:54:58.183Z,16.45
2023-04-02T20:58:20.706Z,15.07
2023-04-02T21:01:43.011Z,15.85
2023-04-02T21:05:05.536Z,14.70
2023-04-02T21:08:27.843Z,13.90
2023-04-02T21:11:50.353Z,12.25
2023-04-02T21:15:13.495Z,12.13
2023-04-02T21:18:35.930Z,12.77
2023-04-02T21:21:58.491Z,12.73
2023-04-02T21:25:20.776Z,11.88
2023-04-02T21:28:44.222Z,10.57
2023-04-02T21:32:18.494Z,11.23
2023-04-02T21:35:43.460Z,10.85
2023-04-02T21:39:09.726Z,9.98
2023-04-02T21:42:32.004Z,8.75
2023-04-02T21:45:58.919Z,10.43
2023-04-02T21:49:26.075Z,9.52
2023-04-02T21:52:48.434Z,8.88
2023-04-02T21:56:18.852Z,8.80
2023-04-02T21:59:41.081Z,8.50
2023-04-02T22:03:03.496Z,4.97
2023-04-02T22:06:28.349Z,7.05
2023-04-02T22:09:50.671Z,6.78
2023-04-02T22:13:12.912Z,7.38
2023-04-02T22:16:36.070Z,7.80
2023-04-02T22:19:58.346Z,6.05
2023-04-02T22:23:20.674Z,6.45
2023-04-02T22:26:44.314Z,6.80
2023-04-02T22:30:07.474Z,6.03
2023-04-02T22:33:32.348Z,6.10
2023-04-02T22:36:54.575Z,5.80
2023-04-02T22:40:16.908Z,6.25
2023-04-02T22:43:40.527Z,6.32
2023-04-02T22:47:02.817Z,5.75
2023-04-02T22:50:25.136Z,5.13
2023-04-02T22:53:48.125Z,5.72
2023-04-02T22:57:11.293Z,5.35
2023-04-02T23:00:34.862Z,5.55
2023-04-02T23:03:57.754Z,4.68
2023-04-02T23:07:19.992Z,4.93
2023-04-02T23:10:42.205Z,4.60
2023-04-02T23:14:04.699Z,4.30
2023-04-02T23:17:27.007Z,4.60
2023-04-02T23:20:49.336Z,4.55
2023-04-02T23:24:12.521Z,3.75
2023-04-02T23:27:34.810Z,4.38
2023-04-02T23:30:57.055Z,4.40
2023-04-02T23:34:19.379Z,4.63
2023-04-02T23:37:42.098Z,4.18
2023-04-02T23:41:04.613Z,4.20
2023-04-02T23:44:26.994Z,4.13
2023-04-02T23:47:49.293Z,4.07
2023-04-02T23:51:12.233Z,3.55
2023-04-02T23:54:34.494Z,3.33
2023-04-02T23:57:56.688Z,3.70
